sensor_id;sensor_type;location;lat;lon;timestamp;P1;durP1;ratioP1;P2;durP2;ratioP2
69323;SDS011;56470;47.350;8.718;2022-11-11T00:02:00;12.70;;;5.83;;
69323;SDS011;56470;47.350;8.718;2022-11-11T00:04:25;13.47;;;5.87;;
69323;SDS011;56470;47.350;8.718;2022-11-11T00:06:52;11.02;;;5.03;;
69323;SDS011;56470;47.350;8.718;2022-11-11T00:09:18;11.25;;;5.32;;
69323;SDS011;56470;47.350;8.718;2022-11-11T00:11:43;10.73;;;5.70;;
69323;SDS011;56470;47.350;8.718;2022-11-11T00:14:08;10.20;;;5.30;;
69323;SDS011;56470;47.350;8.718;2022-11-11T00:16:34;11.23;;;5.33;;
69323;SDS011;56470;47.350;8.718;2022-11-11T00:19:18;10.25;;;4.97;;
69323;SDS011;56470;47.350;8.718;2022-11-11T00:22:02;9.25;;;4.47;;
69323;SDS011;56470;47.350;8.718;2022-11-11T00:24:45;9.40;;;4.82;;
69323;SDS011;56470;47.350;8.718;2022-11-11T00:27:29;9.23;;;4.73;;
69323;SDS011;56470;47.350;8.718;2022-11-11T00:29:55;9.55;;;4.95;;
69323;SDS011;56470;47.350;8.718;2022-11-11T00:32:20;9.93;;;4.33;;
69323;SDS011;56470;47.350;8.718;2022-11-11T00:34:54;8.80;;;4.72;;
69323;SDS011;56470;47.350;8.718;2022-11-11T00:37:40;9.93;;;4.78;;
69323;SDS011;56470;47.350;8.718;2022-11-11T00:40:26;8.13;;;4.40;;
69323;SDS011;56470;47.350;8.718;2022-11-11T00:43:01;8.67;;;4.60;;
69323;SDS011;56470;47.350;8.718;2022-11-11T00:45:27;8.38;;;4.63;;
69323;SDS011;56470;47.350;8.718;2022-11-11T00:47:53;8.43;;;4.27;;
69323;SDS011;56470;47.350;8.718;2022-11-11T00:50:36;9.48;;;5.30;;
69323;SDS011;56470;47.350;8.718;2022-11-11T00:53:30;9.30;;;4.78;;
69323;SDS011;56470;47.350;8.718;2022-11-11T00:56:00;7.88;;;4.82;;
69323;SDS011;56470;47.350;8.718;2022-11-11T00:58:26;8.50;;;4.77;;
69323;SDS011;56470;47.350;8.718;2022-11-11T01:00:52;7.60;;;4.05;;
69323;SDS011;56470;47.350;8.718;2022-11-11T01:03:18;8.90;;;4.70;;
69323;SDS011;56470;47.350;8.718;2022-11-11T01:05:44;8.30;;;5.20;;
69323;SDS011;56470;47.350;8.718;2022-11-11T01:08:09;10.37;;;4.60;;
69323;SDS011;56470;47.350;8.718;2022-11-11T01:10:35;10.73;;;5.03;;
69323;SDS011;56470;47.350;8.718;2022-11-11T01:13:27;10.17;;;5.47;;
69323;SDS011;56470;47.350;8.718;2022-11-11T01:16:03;10.20;;;5.22;;
69323;SDS011;56470;47.350;8.718;2022-11-11T01:18:30;9.00;;;4.32;;
69323;SDS011;56470;47.350;8.718;2022-11-11T01:21:00;9.77;;;4.63;;
69323;SDS011;56470;47.350;8.718;2022-11-11T01:23:36;8.80;;;4.97;;
69323;SDS011;56470;47.350;8.718;2022-11-11T01:26:04;9.07;;;5.00;;
69323;SDS011;56470;47.350;8.718;2022-11-11T01:28:31;13.15;;;5.80;;
69323;SDS011;56470;47.350;8.718;2022-11-11T01:31:01;10.50;;;5.63;;
69323;SDS011;56470;47.350;8.718;2022-11-11T01:33:28;10.98;;;4.85;;
69323;SDS011;56470;47.350;8.718;2022-11-11T01:35:53;10.00;;;5.60;;
69323;SDS011;56470;47.350;8.718;2022-11-11T01:38:18;9.73;;;5.17;;
69323;SDS011;56470;47.350;8.718;2022-11-11T01:40:45;11.03;;;5.07;;
69323;SDS011;56470;47.350;8.718;2022-11-11T01:43:14;12.93;;;5.95;;
69323;SDS011;56470;47.350;8.718;2022-11-11T01:48:23;13.27;;;6.07;;
69323;SDS011;56470;47.350;8.718;2022-11-11T01:51:13;12.07;;;5.65;;
69323;SDS011;56470;47.350;8.718;2022-11-11T01:53:43;14.05;;;6.47;;
69323;SDS011;56470;47.350;8.718;2022-11-11T01:56:10;14.32;;;6.63;;
69323;SDS011;56470;47.350;8.718;2022-11-11T01:58:36;9.80;;;5.67;;
69323;SDS011;56470;47.350;8.718;2022-11-11T02:01:02;8.48;;;4.20;;
69323;SDS011;56470;47.350;8.718;2022-11-11T02:03:29;9.83;;;4.50;;
69323;SDS011;56470;47.350;8.718;2022-11-11T02:05:57;11.37;;;5.33;;
69323;SDS011;56470;47.350;8.718;2022-11-11T02:08:25;8.68;;;4.25;;
69323;SDS011;56470;47.350;8.718;2022-11-11T02:11:13;9.13;;;4.43;;
69323;SDS011;56470;47.350;8.718;2022-11-11T02:14:00;8.55;;;4.65;;
69323;SDS011;56470;47.350;8.718;2022-11-11T02:16:44;8.10;;;4.30;;
69323;SDS011;56470;47.350;8.718;2022-11-11T02:19:10;8.37;;;4.93;;
69323;SDS011;56470;47.350;8.718;2022-11-11T02:21:36;8.57;;;4.38;;
69323;SDS011;56470;47.350;8.718;2022-11-11T02:24:08;9.50;;;4.90;;
69323;SDS011;56470;47.350;8.718;2022-11-11T02:26:38;9.63;;;5.07;;
69323;SDS011;56470;47.350;8.718;2022-11-11T02:29:06;11.05;;;5.40;;
69323;SDS011;56470;47.350;8.718;2022-11-11T02:31:37;9.75;;;5.47;;
69323;SDS011;56470;47.350;8.718;2022-11-11T02:34:03;13.17;;;5.43;;
69323;SDS011;56470;47.350;8.718;2022-11-11T02:36:28;12.37;;;6.47;;
69323;SDS011;56470;47.350;8.718;2022-11-11T02:38:53;9.80;;;4.73;;
69323;SDS011;56470;47.350;8.718;2022-11-11T02:41:19;11.03;;;5.40;;
69323;SDS011;56470;47.350;8.718;2022-11-11T02:44:03;13.07;;;5.65;;
69323;SDS011;56470;47.350;8.718;2022-11-11T02:46:28;11.27;;;5.93;;
69323;SDS011;56470;47.350;8.718;2022-11-11T02:48:54;10.27;;;5.13;;
69323;SDS011;56470;47.350;8.718;2022-11-11T02:51:19;10.33;;;5.70;;
69323;SDS011;56470;47.350;8.718;2022-11-11T02:53:44;9.53;;;5.47;;
69323;SDS011;56470;47.350;8.718;2022-11-11T02:56:10;11.40;;;4.97;;
69323;SDS011;56470;47.350;8.718;2022-11-11T02:58:35;10.27;;;5.70;;
69323;SDS011;56470;47.350;8.718;2022-11-11T03:01:00;10.80;;;5.10;;
69323;SDS011;56470;47.350;8.718;2022-11-11T03:03:26;10.73;;;5.97;;
69323;SDS011;56470;47.350;8.718;2022-11-11T03:05:51;11.53;;;5.53;;
69323;SDS011;56470;47.350;8.718;2022-11-11T03:08:16;11.60;;;5.63;;
69323;SDS011;56470;47.350;8.718;2022-11-11T03:10:42;13.37;;;5.73;;
69323;SDS011;56470;47.350;8.718;2022-11-11T03:13:07;11.43;;;5.63;;
69323;SDS011;56470;47.350;8.718;2022-11-11T03:15:32;13.02;;;5.80;;
69323;SDS011;56470;47.350;8.718;2022-11-11T03:17:58;11.60;;;5.17;;
69323;SDS011;56470;47.350;8.718;2022-11-11T03:20:23;13.03;;;6.40;;
69323;SDS011;56470;47.350;8.718;2022-11-11T03:23:08;13.27;;;6.20;;
69323;SDS011;56470;47.350;8.718;2022-11-11T03:25:39;11.10;;;5.57;;
69323;SDS011;56470;47.350;8.718;2022-11-11T03:30:36;15.70;;;6.78;;
69323;SDS011;56470;47.350;8.718;2022-11-11T03:33:02;13.18;;;5.70;;
69323;SDS011;56470;47.350;8.718;2022-11-11T03:35:28;12.90;;;5.50;;
69323;SDS011;56470;47.350;8.718;2022-11-11T03:37:54;11.60;;;5.13;;
69323;SDS011;56470;47.350;8.718;2022-11-11T03:40:38;11.93;;;5.20;;
69323;SDS011;56470;47.350;8.718;2022-11-11T03:43:04;16.30;;;5.90;;
69323;SDS011;56470;47.350;8.718;2022-11-11T03:45:30;12.55;;;6.03;;
69323;SDS011;56470;47.350;8.718;2022-11-11T03:47:55;10.47;;;5.37;;
69323;SDS011;56470;47.350;8.718;2022-11-11T03:50:21;11.50;;;5.22;;
69323;SDS011;56470;47.350;8.718;2022-11-11T03:52:46;14.97;;;6.23;;
69323;SDS011;56470;47.350;8.718;2022-11-11T03:55:12;11.77;;;5.27;;
69323;SDS011;56470;47.350;8.718;2022-11-11T03:57:41;14.00;;;5.53;;
69323;SDS011;56470;47.350;8.718;2022-11-11T04:00:09;11.48;;;6.75;;
69323;SDS011;56470;47.350;8.718;2022-11-11T04:02:35;11.13;;;5.57;;
69323;SDS011;56470;47.350;8.718;2022-11-11T04:05:19;13.30;;;6.17;;
69323;SDS011;56470;47.350;8.718;2022-11-11T04:08:03;14.88;;;6.53;;
69323;SDS011;56470;47.350;8.718;2022-11-11T04:10:47;12.15;;;5.68;;
69323;SDS011;56470;47.350;8.718;2022-11-11T04:13:13;12.30;;;6.07;;
69323;SDS011;56470;47.350;8.718;2022-11-11T04:15:57;13.20;;;6.63;;
69323;SDS011;56470;47.350;8.718;2022-11-11T04:18:32;13.20;;;6.65;;
69323;SDS011;56470;47.350;8.718;2022-11-11T04:21:16;15.32;;;7.13;;
69323;SDS011;56470;47.350;8.718;2022-11-11T04:24:00;13.48;;;6.90;;
69323;SDS011;56470;47.350;8.718;2022-11-11T04:26:25;13.27;;;6.27;;
69323;SDS011;56470;47.350;8.718;2022-11-11T04:28:51;11.57;;;6.00;;
69323;SDS011;56470;47.350;8.718;2022-11-11T04:31:35;15.05;;;6.05;;
69323;SDS011;56470;47.350;8.718;2022-11-11T04:34:00;14.13;;;5.83;;
69323;SDS011;56470;47.350;8.718;2022-11-11T04:36:26;12.37;;;6.00;;
69323;SDS011;56470;47.350;8.718;2022-11-11T04:38:51;13.05;;;6.10;;
69323;SDS011;56470;47.350;8.718;2022-11-11T04:41:35;12.43;;;5.83;;
69323;SDS011;56470;47.350;8.718;2022-11-11T04:44:00;11.60;;;5.70;;
69323;SDS011;56470;47.350;8.718;2022-11-11T04:46:44;12.25;;;5.50;;
69323;SDS011;56470;47.350;8.718;2022-11-11T04:49:09;10.80;;;5.47;;
69323;SDS011;56470;47.350;8.718;2022-11-11T04:51:35;12.00;;;5.68;;
69323;SDS011;56470;47.350;8.718;2022-11-11T04:54:19;12.27;;;5.73;;
69323;SDS011;56470;47.350;8.718;2022-11-11T04:56:47;12.73;;;5.82;;
69323;SDS011;56470;47.350;8.718;2022-11-11T04:59:14;10.48;;;4.72;;
69323;SDS011;56470;47.350;8.718;2022-11-11T05:01:45;11.25;;;6.00;;
69323;SDS011;56470;47.350;8.718;2022-11-11T05:04:29;10.90;;;5.90;;
69323;SDS011;56470;47.350;8.718;2022-11-11T05:06:55;11.17;;;5.17;;
69323;SDS011;56470;47.350;8.718;2022-11-11T05:09:39;12.13;;;5.70;;
69323;SDS011;56470;47.350;8.718;2022-11-11T05:12:04;12.80;;;4.93;;
69323;SDS011;56470;47.350;8.718;2022-11-11T05:14:30;9.73;;;4.82;;
69323;SDS011;56470;47.350;8.718;2022-11-11T05:17:14;10.02;;;4.68;;
69323;SDS011;56470;47.350;8.718;2022-11-11T05:19:58;11.10;;;4.63;;
69323;SDS011;56470;47.350;8.718;2022-11-11T05:22:42;8.93;;;4.63;;
69323;SDS011;56470;47.350;8.718;2022-11-11T05:25:09;11.57;;;6.03;;
69323;SDS011;56470;47.350;8.718;2022-11-11T05:27:53;10.30;;;4.53;;
69323;SDS011;56470;47.350;8.718;2022-11-11T05:30:20;10.15;;;5.18;;
69323;SDS011;56470;47.350;8.718;2022-11-11T05:32:49;11.60;;;4.90;;
69323;SDS011;56470;47.350;8.718;2022-11-11T05:35:15;9.68;;;5.07;;
69323;SDS011;56470;47.350;8.718;2022-11-11T05:37:40;8.85;;;4.20;;
69323;SDS011;56470;47.350;8.718;2022-11-11T05:40:07;11.00;;;4.40;;
69323;SDS011;56470;47.350;8.718;2022-11-11T05:42:33;8.97;;;4.10;;
69323;SDS011;56470;47.350;8.718;2022-11-11T05:44:59;7.85;;;4.00;;
69323;SDS011;56470;47.350;8.718;2022-11-11T05:47:24;8.47;;;4.23;;
69323;SDS011;56470;47.350;8.718;2022-11-11T05:49:50;8.70;;;3.80;;
69323;SDS011;56470;47.350;8.718;2022-11-11T05:52:16;9.57;;;5.00;;
69323;SDS011;56470;47.350;8.718;2022-11-11T05:54:42;6.35;;;3.45;;
69323;SDS011;56470;47.350;8.718;2022-11-11T05:57:08;7.97;;;3.55;;
69323;SDS011;56470;47.350;8.718;2022-11-11T05:59:33;6.37;;;3.43;;
69323;SDS011;56470;47.350;8.718;2022-11-11T06:01:58;9.20;;;4.60;;
69323;SDS011;56470;47.350;8.718;2022-11-11T06:04:24;7.20;;;3.50;;
69323;SDS011;56470;47.350;8.718;2022-11-11T06:06:50;9.30;;;4.03;;
69323;SDS011;56470;47.350;8.718;2022-11-11T06:09:18;8.13;;;4.30;;
69323;SDS011;56470;47.350;8.718;2022-11-11T06:11:43;8.77;;;3.90;;
69323;SDS011;56470;47.350;8.718;2022-11-11T06:14:08;7.90;;;4.00;;
69323;SDS011;56470;47.350;8.718;2022-11-11T06:16:34;8.30;;;4.17;;
69323;SDS011;56470;47.350;8.718;2022-11-11T06:18:59;9.80;;;4.18;;
69323;SDS011;56470;47.350;8.718;2022-11-11T06:21:25;8.50;;;3.60;;
69323;SDS011;56470;47.350;8.718;2022-11-11T06:23:51;8.55;;;3.75;;
69323;SDS011;56470;47.350;8.718;2022-11-11T06:26:17;9.20;;;3.53;;
69323;SDS011;56470;47.350;8.718;2022-11-11T06:28:46;8.55;;;4.47;;
69323;SDS011;56470;47.350;8.718;2022-11-11T06:31:13;9.00;;;4.20;;
69323;SDS011;56470;47.350;8.718;2022-11-11T06:33:40;9.07;;;4.45;;
69323;SDS011;56470;47.350;8.718;2022-11-11T06:36:06;10.13;;;5.00;;
69323;SDS011;56470;47.350;8.718;2022-11-11T06:38:33;9.02;;;4.28;;
69323;SDS011;56470;47.350;8.718;2022-11-11T06:40:58;9.40;;;4.50;;
69323;SDS011;56470;47.350;8.718;2022-11-11T06:43:23;10.23;;;4.10;;
69323;SDS011;56470;47.350;8.718;2022-11-11T06:45:52;9.93;;;4.83;;
69323;SDS011;56470;47.350;8.718;2022-11-11T06:48:18;8.65;;;4.88;;
69323;SDS011;56470;47.350;8.718;2022-11-11T06:50:47;9.40;;;5.00;;
69323;SDS011;56470;47.350;8.718;2022-11-11T06:53:13;8.77;;;4.93;;
69323;SDS011;56470;47.350;8.718;2022-11-11T06:55:42;10.07;;;4.72;;
69323;SDS011;56470;47.350;8.718;2022-11-11T07:00:37;10.43;;;4.80;;
69323;SDS011;56470;47.350;8.718;2022-11-11T07:03:03;8.37;;;4.23;;
69323;SDS011;56470;47.350;8.718;2022-11-11T07:05:29;9.55;;;4.70;;
69323;SDS011;56470;47.350;8.718;2022-11-11T07:07:58;9.23;;;4.35;;
69323;SDS011;56470;47.350;8.718;2022-11-11T07:10:25;9.20;;;4.45;;
69323;SDS011;56470;47.350;8.718;2022-11-11T07:12:51;10.67;;;4.43;;
69323;SDS011;56470;47.350;8.718;2022-11-11T07:15:16;8.80;;;4.40;;
69323;SDS011;56470;47.350;8.718;2022-11-11T07:17:42;8.63;;;4.50;;
69323;SDS011;56470;47.350;8.718;2022-11-11T07:20:07;7.40;;;3.87;;
69323;SDS011;56470;47.350;8.718;2022-11-11T07:22:36;8.38;;;4.35;;
69323;SDS011;56470;47.350;8.718;2022-11-11T07:25:02;9.67;;;4.73;;
69323;SDS011;56470;47.350;8.718;2022-11-11T07:27:28;10.68;;;4.95;;
69323;SDS011;56470;47.350;8.718;2022-11-11T07:29:53;9.80;;;4.57;;
69323;SDS011;56470;47.350;8.718;2022-11-11T07:32:19;11.13;;;5.60;;
69323;SDS011;56470;47.350;8.718;2022-11-11T07:34:44;8.60;;;4.10;;
69323;SDS011;56470;47.350;8.718;2022-11-11T07:37:10;10.47;;;5.13;;
69323;SDS011;56470;47.350;8.718;2022-11-11T07:39:38;10.37;;;4.77;;
69323;SDS011;56470;47.350;8.718;2022-11-11T07:42:03;9.27;;;4.40;;
69323;SDS011;56470;47.350;8.718;2022-11-11T07:44:28;8.35;;;4.40;;
69323;SDS011;56470;47.350;8.718;2022-11-11T07:46:54;8.27;;;4.10;;
69323;SDS011;56470;47.350;8.718;2022-11-11T07:49:22;11.67;;;5.00;;
69323;SDS011;56470;47.350;8.718;2022-11-11T07:51:50;8.63;;;4.28;;
69323;SDS011;56470;47.350;8.718;2022-11-11T07:54:15;10.67;;;5.03;;
69323;SDS011;56470;47.350;8.718;2022-11-11T07:56:41;9.98;;;4.88;;
69323;SDS011;56470;47.350;8.718;2022-11-11T07:59:06;13.13;;;4.80;;
69323;SDS011;56470;47.350;8.718;2022-11-11T08:01:32;14.20;;;5.17;;
69323;SDS011;56470;47.350;8.718;2022-11-11T08:03:59;8.52;;;4.65;;
69323;SDS011;56470;47.350;8.718;2022-11-11T08:06:24;10.82;;;5.18;;
69323;SDS011;56470;47.350;8.718;2022-11-11T08:08:50;11.03;;;5.27;;
69323;SDS011;56470;47.350;8.718;2022-11-11T08:11:18;10.43;;;5.20;;
69323;SDS011;56470;47.350;8.718;2022-11-11T08:14:03;14.90;;;5.83;;
69323;SDS011;56470;47.350;8.718;2022-11-11T08:16:49;10.02;;;5.03;;
69323;SDS011;56470;47.350;8.718;2022-11-11T08:19:15;10.83;;;5.00;;
69323;SDS011;56470;47.350;8.718;2022-11-11T08:21:40;10.77;;;5.10;;
69323;SDS011;56470;47.350;8.718;2022-11-11T08:24:06;9.57;;;5.40;;
69323;SDS011;56470;47.350;8.718;2022-11-11T08:26:32;9.77;;;4.68;;
69323;SDS011;56470;47.350;8.718;2022-11-11T08:28:58;9.77;;;4.93;;
69323;SDS011;56470;47.350;8.718;2022-11-11T08:31:24;9.85;;;4.75;;
69323;SDS011;56470;47.350;8.718;2022-11-11T08:33:50;11.18;;;5.20;;
69323;SDS011;56470;47.350;8.718;2022-11-11T08:36:16;10.90;;;4.93;;
69323;SDS011;56470;47.350;8.718;2022-11-11T08:38:41;9.43;;;4.72;;
69323;SDS011;56470;47.350;8.718;2022-11-11T08:41:07;9.47;;;4.40;;
69323;SDS011;56470;47.350;8.718;2022-11-11T08:43:32;10.43;;;4.83;;
69323;SDS011;56470;47.350;8.718;2022-11-11T08:45:59;9.27;;;4.15;;
69323;SDS011;56470;47.350;8.718;2022-11-11T08:48:25;11.07;;;4.90;;
69323;SDS011;56470;47.350;8.718;2022-11-11T08:50:51;9.77;;;4.73;;
69323;SDS011;56470;47.350;8.718;2022-11-11T08:53:18;9.82;;;4.95;;
69323;SDS011;56470;47.350;8.718;2022-11-11T08:55:43;9.23;;;4.28;;
69323;SDS011;56470;47.350;8.718;2022-11-11T08:58:09;9.73;;;3.90;;
69323;SDS011;56470;47.350;8.718;2022-11-11T09:00:35;9.00;;;5.00;;
69323;SDS011;56470;47.350;8.718;2022-11-11T09:03:01;11.60;;;5.20;;
69323;SDS011;56470;47.350;8.718;2022-11-11T09:05:30;9.57;;;4.80;;
69323;SDS011;56470;47.350;8.718;2022-11-11T09:07:59;9.25;;;4.35;;
69323;SDS011;56470;47.350;8.718;2022-11-11T09:10:25;9.07;;;4.88;;
69323;SDS011;56470;47.350;8.718;2022-11-11T09:12:54;10.83;;;5.00;;
69323;SDS011;56470;47.350;8.718;2022-11-11T09:15:22;9.32;;;4.95;;
69323;SDS011;56470;47.350;8.718;2022-11-11T09:17:48;9.70;;;4.82;;
69323;SDS011;56470;47.350;8.718;2022-11-11T09:20:13;9.43;;;4.57;;
69323;SDS011;56470;47.350;8.718;2022-11-11T09:22:43;10.23;;;4.85;;
69323;SDS011;56470;47.350;8.718;2022-11-11T09:25:09;9.73;;;5.30;;
69323;SDS011;56470;47.350;8.718;2022-11-11T09:27:35;8.97;;;4.50;;
69323;SDS011;56470;47.350;8.718;2022-11-11T09:30:00;10.15;;;5.00;;
69323;SDS011;56470;47.350;8.718;2022-11-11T09:32:26;9.13;;;4.83;;
69323;SDS011;56470;47.350;8.718;2022-11-11T09:34:52;9.25;;;4.90;;
69323;SDS011;56470;47.350;8.718;2022-11-11T09:37:19;7.68;;;4.15;;
69323;SDS011;56470;47.350;8.718;2022-11-11T09:39:48;12.70;;;5.17;;
69323;SDS011;56470;47.350;8.718;2022-11-11T09:54:50;9.05;;;4.00;;
69323;SDS011;56470;47.350;8.718;2022-11-11T10:12:04;8.75;;;4.55;;
69323;SDS011;56470;47.350;8.718;2022-11-11T11:50:54;9.00;;;4.65;;
69323;SDS011;56470;47.350;8.718;2022-11-11T11:53:36;13.30;;;5.65;;
69323;SDS011;56470;47.350;8.718;2022-11-11T11:56:14;10.80;;;5.20;;
69323;SDS011;56470;47.350;8.718;2022-11-11T12:05:07;11.27;;;5.28;;
69323;SDS011;56470;47.350;8.718;2022-11-11T12:10:59;11.43;;;5.53;;
69323;SDS011;56470;47.350;8.718;2022-11-11T12:13:40;8.85;;;4.65;;
69323;SDS011;56470;47.350;8.718;2022-11-11T12:16:23;11.02;;;5.82;;
69323;SDS011;56470;47.350;8.718;2022-11-11T12:19:00;9.60;;;5.30;;
69323;SDS011;56470;47.350;8.718;2022-11-11T12:21:54;11.18;;;5.00;;
69323;SDS011;56470;47.350;8.718;2022-11-11T12:27:19;9.65;;;5.35;;
69323;SDS011;56470;47.350;8.718;2022-11-11T12:32:33;10.10;;;5.43;;
69323;SDS011;56470;47.350;8.718;2022-11-11T12:41:14;13.02;;;5.47;;
69323;SDS011;56470;47.350;8.718;2022-11-11T12:46:41;9.90;;;5.50;;
69323;SDS011;56470;47.350;8.718;2022-11-11T12:49:41;13.15;;;5.63;;
69323;SDS011;56470;47.350;8.718;2022-11-11T12:58:02;10.73;;;5.43;;
69323;SDS011;56470;47.350;8.718;2022-11-11T13:11:44;10.25;;;5.32;;
69323;SDS011;56470;47.350;8.718;2022-11-11T13:14:27;9.50;;;5.07;;
69323;SDS011;56470;47.350;8.718;2022-11-11T13:17:03;13.43;;;5.10;;
69323;SDS011;56470;47.350;8.718;2022-11-11T13:19:38;12.17;;;4.70;;
69323;SDS011;56470;47.350;8.718;2022-11-11T13:24:51;8.50;;;4.82;;
69323;SDS011;56470;47.350;8.718;2022-11-11T13:32:27;9.43;;;5.00;;
69323;SDS011;56470;47.350;8.718;2022-11-11T13:35:16;9.45;;;5.00;;
69323;SDS011;56470;47.350;8.718;2022-11-11T13:37:42;10.63;;;5.45;;
69323;SDS011;56470;47.350;8.718;2022-11-11T13:40:18;11.38;;;5.32;;
69323;SDS011;56470;47.350;8.718;2022-11-11T13:42:58;16.70;;;5.32;;
69323;SDS011;56470;47.350;8.718;2022-11-11T13:45:34;9.77;;;5.40;;
69323;SDS011;56470;47.350;8.718;2022-11-11T13:48:03;9.00;;;4.78;;
69323;SDS011;56470;47.350;8.718;2022-11-11T13:50:36;9.18;;;5.32;;
69323;SDS011;56470;47.350;8.718;2022-11-11T13:53:04;12.30;;;5.38;;
69323;SDS011;56470;47.350;8.718;2022-11-11T13:55:33;10.48;;;4.82;;
69323;SDS011;56470;47.350;8.718;2022-11-11T13:58:01;11.77;;;5.23;;
69323;SDS011;56470;47.350;8.718;2022-11-11T14:00:30;10.10;;;4.93;;
69323;SDS011;56470;47.350;8.718;2022-11-11T14:05:44;9.75;;;5.70;;
69323;SDS011;56470;47.350;8.718;2022-11-11T14:08:27;13.10;;;5.40;;
69323;SDS011;56470;47.350;8.718;2022-11-11T14:16:59;11.00;;;5.57;;
69323;SDS011;56470;47.350;8.718;2022-11-11T14:19:28;11.43;;;5.60;;
69323;SDS011;56470;47.350;8.718;2022-11-11T14:22:00;10.40;;;6.00;;
69323;SDS011;56470;47.350;8.718;2022-11-11T14:29:36;10.27;;;5.35;;
69323;SDS011;56470;47.350;8.718;2022-11-11T14:32:17;11.77;;;6.07;;
69323;SDS011;56470;47.350;8.718;2022-11-11T14:35:05;11.20;;;6.05;;
69323;SDS011;56470;47.350;8.718;2022-11-11T14:40:31;10.13;;;5.50;;
69323;SDS011;56470;47.350;8.718;2022-11-11T14:42:58;12.43;;;6.57;;
69323;SDS011;56470;47.350;8.718;2022-11-11T14:47:53;11.18;;;5.47;;
69323;SDS011;56470;47.350;8.718;2022-11-11T14:52:55;12.73;;;5.85;;
69323;SDS011;56470;47.350;8.718;2022-11-11T14:57:57;13.68;;;6.15;;
69323;SDS011;56470;47.350;8.718;2022-11-11T15:00:27;11.25;;;5.85;;
69323;SDS011;56470;47.350;8.718;2022-11-11T15:05:52;11.02;;;5.53;;
69323;SDS011;56470;47.350;8.718;2022-11-11T15:08:25;11.77;;;6.03;;
69323;SDS011;56470;47.350;8.718;2022-11-11T15:24:53;12.85;;;6.70;;
69323;SDS011;56470;47.350;8.718;2022-11-11T15:37:51;13.07;;;6.72;;
69323;SDS011;56470;47.350;8.718;2022-11-11T15:40:21;16.33;;;7.10;;
69323;SDS011;56470;47.350;8.718;2022-11-11T15:43:14;13.88;;;6.30;;
69323;SDS011;56470;47.350;8.718;2022-11-11T15:45:45;13.70;;;6.85;;
69323;SDS011;56470;47.350;8.718;2022-11-11T15:48:17;14.93;;;7.07;;
69323;SDS011;56470;47.350;8.718;2022-11-11T15:50:45;17.67;;;7.07;;
69323;SDS011;56470;47.350;8.718;2022-11-11T15:53:11;13.97;;;6.83;;
69323;SDS011;56470;47.350;8.718;2022-11-11T15:55:37;15.68;;;7.22;;
69323;SDS011;56470;47.350;8.718;2022-11-11T15:58:23;12.55;;;6.63;;
69323;SDS011;56470;47.350;8.718;2022-11-11T16:00:50;14.80;;;7.45;;
69323;SDS011;56470;47.350;8.718;2022-11-11T16:03:20;16.15;;;7.78;;
69323;SDS011;56470;47.350;8.718;2022-11-11T16:05:49;16.53;;;7.20;;
69323;SDS011;56470;47.350;8.718;2022-11-11T16:08:16;18.05;;;7.25;;
69323;SDS011;56470;47.350;8.718;2022-11-11T16:10:51;14.02;;;6.80;;
69323;SDS011;56470;47.350;8.718;2022-11-11T16:13:21;14.83;;;7.27;;
69323;SDS011;56470;47.350;8.718;2022-11-11T16:15:53;15.07;;;7.38;;
69323;SDS011;56470;47.350;8.718;2022-11-11T16:18:24;14.30;;;6.70;;
69323;SDS011;56470;47.350;8.718;2022-11-11T16:23:49;14.27;;;6.82;;
69323;SDS011;56470;47.350;8.718;2022-11-11T16:26:15;12.50;;;6.20;;
69323;SDS011;56470;47.350;8.718;2022-11-11T16:28:47;15.45;;;6.88;;
69323;SDS011;56470;47.350;8.718;2022-11-11T16:31:28;16.13;;;7.10;;
69323;SDS011;56470;47.350;8.718;2022-11-11T16:39:29;13.77;;;6.70;;
69323;SDS011;56470;47.350;8.718;2022-11-11T16:41:58;15.32;;;7.30;;
69323;SDS011;56470;47.350;8.718;2022-11-11T16:46:53;14.55;;;7.40;;
69323;SDS011;56470;47.350;8.718;2022-11-11T16:52:27;15.75;;;7.28;;
69323;SDS011;56470;47.350;8.718;2022-11-11T16:54:53;14.90;;;7.78;;
69323;SDS011;56470;47.350;8.718;2022-11-11T16:57:22;13.50;;;7.50;;
69323;SDS011;56470;47.350;8.718;2022-11-11T16:59:55;14.30;;;7.85;;
69323;SDS011;56470;47.350;8.718;2022-11-11T17:02:25;15.05;;;7.50;;
69323;SDS011;56470;47.350;8.718;2022-11-11T17:04:52;15.67;;;7.33;;
69323;SDS011;56470;47.350;8.718;2022-11-11T17:07:32;14.98;;;8.02;;
69323;SDS011;56470;47.350;8.718;2022-11-11T17:12:45;16.85;;;7.32;;
69323;SDS011;56470;47.350;8.718;2022-11-11T17:15:12;14.47;;;7.20;;
69323;SDS011;56470;47.350;8.718;2022-11-11T17:17:39;13.85;;;6.85;;
69323;SDS011;56470;47.350;8.718;2022-11-11T17:22:32;15.43;;;8.30;;
69323;SDS011;56470;47.350;8.718;2022-11-11T17:24:58;16.40;;;7.57;;
69323;SDS011;56470;47.350;8.718;2022-11-11T17:27:23;15.77;;;8.33;;
69323;SDS011;56470;47.350;8.718;2022-11-11T17:29:48;17.43;;;8.03;;
69323;SDS011;56470;47.350;8.718;2022-11-11T17:32:14;22.63;;;9.87;;
69323;SDS011;56470;47.350;8.718;2022-11-11T17:34:39;15.57;;;8.23;;
69323;SDS011;56470;47.350;8.718;2022-11-11T17:37:04;15.37;;;7.43;;
69323;SDS011;56470;47.350;8.718;2022-11-11T17:39:30;16.63;;;7.87;;
69323;SDS011;56470;47.350;8.718;2022-11-11T17:41:55;14.47;;;7.43;;
69323;SDS011;56470;47.350;8.718;2022-11-11T17:44:21;16.00;;;7.82;;
69323;SDS011;56470;47.350;8.718;2022-11-11T17:46:46;17.37;;;7.60;;
69323;SDS011;56470;47.350;8.718;2022-11-11T17:49:12;16.90;;;7.87;;
69323;SDS011;56470;47.350;8.718;2022-11-11T17:51:37;16.10;;;7.93;;
69323;SDS011;56470;47.350;8.718;2022-11-11T17:54:06;17.65;;;8.70;;
69323;SDS011;56470;47.350;8.718;2022-11-11T17:56:33;18.25;;;7.95;;
69323;SDS011;56470;47.350;8.718;2022-11-11T17:58:59;17.73;;;8.67;;
69323;SDS011;56470;47.350;8.718;2022-11-11T18:01:25;19.35;;;8.60;;
69323;SDS011;56470;47.350;8.718;2022-11-11T18:03:53;16.83;;;8.43;;
69323;SDS011;56470;47.350;8.718;2022-11-11T18:06:19;16.42;;;8.68;;
69323;SDS011;56470;47.350;8.718;2022-11-11T18:08:45;18.40;;;8.60;;
69323;SDS011;56470;47.350;8.718;2022-11-11T18:11:10;17.47;;;9.23;;
69323;SDS011;56470;47.350;8.718;2022-11-11T18:13:35;19.93;;;10.63;;
69323;SDS011;56470;47.350;8.718;2022-11-11T18:16:01;23.60;;;10.93;;
69323;SDS011;56470;47.350;8.718;2022-11-11T18:18:27;22.17;;;11.23;;
69323;SDS011;56470;47.350;8.718;2022-11-11T18:20:53;22.80;;;11.10;;
69323;SDS011;56470;47.350;8.718;2022-11-11T18:23:23;22.63;;;11.65;;
69323;SDS011;56470;47.350;8.718;2022-11-11T18:25:52;20.77;;;10.70;;
69323;SDS011;56470;47.350;8.718;2022-11-11T18:28:18;21.45;;;9.77;;
69323;SDS011;56470;47.350;8.718;2022-11-11T18:30:43;18.60;;;9.47;;
69323;SDS011;56470;47.350;8.718;2022-11-11T18:33:09;17.70;;;8.35;;
69323;SDS011;56470;47.350;8.718;2022-11-11T18:35:35;16.37;;;7.30;;
69323;SDS011;56470;47.350;8.718;2022-11-11T18:38:00;16.23;;;7.70;;
69323;SDS011;56470;47.350;8.718;2022-11-11T18:40:25;14.83;;;7.17;;
69323;SDS011;56470;47.350;8.718;2022-11-11T18:42:52;16.98;;;7.35;;
69323;SDS011;56470;47.350;8.718;2022-11-11T18:45:17;14.73;;;6.50;;
69323;SDS011;56470;47.350;8.718;2022-11-11T18:47:45;15.17;;;7.47;;
69323;SDS011;56470;47.350;8.718;2022-11-11T18:50:12;14.05;;;6.50;;
69323;SDS011;56470;47.350;8.718;2022-11-11T18:52:38;17.33;;;7.97;;
69323;SDS011;56470;47.350;8.718;2022-11-11T18:55:04;17.23;;;8.00;;
69323;SDS011;56470;47.350;8.718;2022-11-11T18:57:30;14.18;;;7.50;;
69323;SDS011;56470;47.350;8.718;2022-11-11T18:59:56;16.05;;;8.57;;
69323;SDS011;56470;47.350;8.718;2022-11-11T19:02:21;19.67;;;9.53;;
69323;SDS011;56470;47.350;8.718;2022-11-11T19:04:47;14.77;;;7.73;;